Minot AFB, North Dakota
Current Conditions -  °F | °C
As of 6:58 AM on Wednesday 22 Oct 2014 (Local Time) from KMIB Reporting Station
Clear Clear  
Wind Chill: 52°   Ceiling: Unl
Heat Index: 52°   Visibility: 10mi
Dew Point: 47°   Wind: 15mph
Humidity: 84%   Direction: 260°W
Pressure: 29.68"   Gusts: NA
Location:  48.42°N, 101.33°W
Report Text: KMIB 221158Z AUTO 26013KT 10SM CLR 11/08 A2968 RMK AO2 SLP058 60000 T01090083 10168 20103 53018 $
Loading
Personal Weather Stations






























Interactive Weather Map
Tropical Storm Tracking
New forecast layout! Learn more

10-Day Weather Forecast

Advertisements
Track Severe Weather on mobile